Time;durP1;ratioP1;P1;durP2;ratioP2;P2;SDS_P1;SDS_P2;PMS_P1;PMS_P2;Temp;Humidity;BMP_temperature;BMP_pressure;BME280_temperature;BME280_humidity;BME280_pressure;Samples;Min_cycle;Max_cycle;Signal;HPM_P1;HPM_P2
2022/01/25 00:29:54;;;;;;;58.63;41.22;;;;;;;4.60;100.00;103509.63;5083999;28;20123;-69
2022/01/25 00:32:20;;;;;;;58.30;40.40;;;;;;;4.78;100.00;103512.94;5083916;28;20043;-69
2022/01/25 00:34:46;;;;;;;57.35;40.75;;;;;;;5.06;100.00;103515.16;5061112;28;20063;-68
2022/01/25 00:37:12;;;;;;;57.83;39.65;;;;;;;4.96;100.00;103511.81;5078888;28;20048;-68
2022/01/25 00:39:38;;;;;;;58.72;41.15;;;;;;;4.62;100.00;103509.47;5084276;28;20225;-68
2022/01/25 00:42:05;;;;;;;59.55;40.13;;;;;;;5.03;100.00;103509.22;5081309;28;20036;-68
2022/01/25 00:44:35;;;;;;;57.28;39.95;;;;;;;4.98;100.00;103501.63;5084070;28;20034;-68
2022/01/25 00:47:01;;;;;;;59.78;40.97;;;;;;;4.57;100.00;103499.94;5082535;28;20535;-69
2022/01/25 00:49:29;;;;;;;59.80;41.70;;;;;;;4.68;100.00;103500.59;5084897;28;20505;-68
2022/01/25 00:52:04;;;;;;;57.97;40.25;;;;;;;4.92;100.00;103503.19;5082071;28;20167;-68
2022/01/25 00:54:31;;;;;;;60.25;41.10;;;;;;;4.73;100.00;103495.47;5081650;28;20471;-69
2022/01/25 00:56:58;;;;;;;59.72;41.58;;;;;;;4.83;100.00;103490.66;5081656;28;20020;-69
2022/01/25 00:59:26;;;;;;;62.10;42.70;;;;;;;4.84;100.00;103486.94;5083142;28;20146;-69
2022/01/25 01:02:04;;;;;;;64.40;43.55;;;;;;;4.98;100.00;103490.72;5082363;28;20024;-69
2022/01/25 01:04:31;;;;;;;59.83;40.60;;;;;;;4.68;100.00;103485.13;5095240;28;20370;-69
2022/01/25 01:07:01;;;;;;;61.38;42.58;;;;;;;4.90;100.00;103485.34;5081421;28;20138;-69
2022/01/25 01:09:29;;;;;;;59.45;41.83;;;;;;;4.71;100.00;103479.34;5048322;28;20032;-69
2022/01/25 01:12:01;;;;;;;59.40;42.47;;;;;;;4.52;100.00;103485.22;5086626;28;20438;-69
2022/01/25 01:14:55;;;;;;;59.88;41.58;;;;;;;4.50;100.00;103484.56;5088754;28;20031;-68
2022/01/25 01:34:18;;;;;;;61.55;41.55;;;;;;;4.93;100.00;103482.28;5087278;28;20085;-68
2022/01/25 01:37:20;;;;;;;63.75;42.90;;;;;;;4.74;100.00;103481.72;5087130;28;20040;-69
2022/01/25 01:40:04;;;;;;;57.47;39.63;;;;;;;4.83;100.00;103478.94;5087703;28;20385;-69
2022/01/25 01:45:32;;;;;;;63.05;43.17;;;;;;;4.92;100.00;103486.88;5089711;28;20085;-68
2022/01/25 01:48:03;;;;;;;57.95;41.45;;;;;;;4.83;100.00;103485.22;5106037;28;20035;-69
2022/01/25 01:50:32;;;;;;;60.50;42.92;;;;;;;4.96;100.00;103482.75;5107241;28;20031;-69
2022/01/25 01:52:59;;;;;;;66.85;44.33;;;;;;;4.81;100.00;103489.16;5104389;28;20110;-68
2022/01/25 01:55:26;;;;;;;62.92;43.92;;;;;;;4.92;100.00;103491.44;5105501;28;20081;-69
2022/01/25 01:57:53;;;;;;;63.97;43.72;;;;;;;4.53;100.00;103482.31;5085843;28;20024;-70
2022/01/25 02:00:23;;;;;;;62.88;43.33;;;;;;;4.67;100.00;103485.31;5086534;28;20084;-68
2022/01/25 02:02:50;;;;;;;62.92;43.28;;;;;;;4.68;100.00;103479.69;5085078;28;20482;-68
2022/01/25 02:05:16;;;;;;;62.47;41.00;;;;;;;4.84;100.00;103477.91;5084980;28;20081;-69
2022/01/25 02:07:41;;;;;;;62.05;44.10;;;;;;;5.07;100.00;103467.91;5084526;28;20039;-69
2022/01/25 02:10:07;;;;;;;62.83;41.67;;;;;;;5.09;100.00;103471.28;5102521;28;20146;-69
2022/01/25 02:12:34;;;;;;;63.45;43.60;;;;;;;4.66;100.00;103465.44;5105780;28;20092;-69
2022/01/25 02:15:02;;;;;;;65.15;44.17;;;;;;;4.71;100.00;103459.50;5106725;28;20131;-67
2022/01/25 02:22:54;;;;;;;64.45;43.35;;;;;;;4.57;100.00;103461.91;5101379;28;20031;-68
2022/01/25 02:25:20;;;;;;;64.93;43.33;;;;;;;4.79;100.00;103459.44;5071725;28;20038;-68
2022/01/25 02:27:46;;;;;;;63.33;43.25;;;;;;;4.73;100.00;103450.13;5089195;28;20087;-69
2022/01/25 02:30:11;;;;;;;65.93;42.85;;;;;;;4.81;100.00;103457.38;5105581;28;20134;-68
2022/01/25 02:32:37;;;;;;;66.47;43.85;;;;;;;4.84;100.00;103448.88;5106128;28;20145;-68
2022/01/25 02:35:03;;;;;;;63.33;42.10;;;;;;;5.08;100.00;103447.00;5104328;28;20030;-69
2022/01/25 02:37:31;;;;;;;68.13;42.92;;;;;;;5.10;100.00;103455.81;5103700;28;20196;-68
2022/01/25 02:39:57;;;;;;;62.70;41.25;;;;;;;4.92;100.00;103456.09;5104952;27;20027;-69
2022/01/25 02:42:23;;;;;;;64.13;42.75;;;;;;;5.08;100.00;103453.31;5104790;28;20053;-69
2022/01/25 02:44:49;;;;;;;65.43;44.05;;;;;;;5.05;100.00;103463.66;5104978;28;20038;-69
2022/01/25 02:49:59;;;;;;;66.07;43.15;;;;;;;5.07;100.00;103462.47;5083046;28;20047;-68
2022/01/25 02:52:26;;;;;;;65.97;42.90;;;;;;;4.98;100.00;103460.84;5089252;28;20050;-68
2022/01/25 02:54:52;;;;;;;65.78;43.92;;;;;;;4.86;100.00;103452.25;5085337;28;20032;-68
2022/01/25 02:57:18;;;;;;;65.60;43.53;;;;;;;4.86;100.00;103459.56;5048385;28;20036;-68
2022/01/25 02:59:44;;;;;;;66.32;43.17;;;;;;;4.84;100.00;103467.03;5085877;28;20032;-69
2022/01/25 03:02:09;;;;;;;66.15;44.30;;;;;;;4.76;100.00;103468.78;5092903;28;20165;-69
2022/01/25 03:04:35;;;;;;;62.47;42.05;;;;;;;5.05;100.00;103464.53;5085139;28;20020;-67
2022/01/25 03:07:02;;;;;;;67.75;43.15;;;;;;;4.87;100.00;103464.81;5084002;28;20031;-68
2022/01/25 03:09:27;;;;;;;66.07;42.78;;;;;;;4.86;100.00;103465.00;5067366;28;20541;-68
2022/01/25 03:11:59;;;;;;;71.25;44.67;;;;;;;4.76;100.00;103467.94;5067934;28;20111;-68
2022/01/25 03:14:28;;;;;;;65.50;42.92;;;;;;;4.96;100.00;103465.59;5085614;28;20051;-68
2022/01/25 03:17:08;;;;;;;65.38;43.90;;;;;;;5.13;100.00;103477.22;5084091;28;20406;-69
2022/01/25 03:22:13;;;;;;;65.32;43.10;;;;;;;5.10;100.00;103466.69;5085323;28;20036;-69
2022/01/25 03:24:38;;;;;;;70.00;45.20;;;;;;;5.14;100.00;103457.16;5085635;28;20110;-69
2022/01/25 03:27:04;;;;;;;67.97;42.58;;;;;;;5.22;100.00;103465.25;5047519;28;20111;-68
2022/01/25 03:29:29;;;;;;;67.65;43.97;;;;;;;4.98;100.00;103460.84;5066902;28;20031;-68
2022/01/25 03:31:56;;;;;;;67.57;43.63;;;;;;;4.89;100.00;103459.22;5090506;28;20546;-68
2022/01/25 03:34:21;;;;;;;67.57;43.70;;;;;;;5.03;100.00;103463.84;5103183;28;20031;-67
2022/01/25 03:36:47;;;;;;;68.35;44.00;;;;;;;5.21;100.00;103451.84;5094579;28;20147;-68
2022/01/25 03:39:13;;;;;;;68.43;43.38;;;;;;;5.00;100.00;103450.66;5082905;28;20397;-68
2022/01/25 03:41:38;;;;;;;66.43;42.00;;;;;;;4.78;100.00;103455.00;5105423;28;20343;-68
2022/01/25 03:44:04;;;;;;;68.07;43.83;;;;;;;5.08;100.00;103447.88;5095096;28;20024;-69
2022/01/25 03:46:38;;;;;;;66.93;43.38;;;;;;;4.84;100.00;103456.16;5085220;28;20443;-68
2022/01/25 03:51:49;;;;;;;70.43;44.70;;;;;;;4.98;100.00;103447.25;5085261;28;20132;-68
2022/01/25 03:54:15;;;;;;;73.93;46.65;;;;;;;4.82;100.00;103450.06;5079728;28;20057;-68
2022/01/25 03:56:40;;;;;;;69.50;43.75;;;;;;;4.97;100.00;103449.13;5084650;28;20499;-69
2022/01/25 03:59:07;;;;;;;71.85;44.22;;;;;;;4.81;100.00;103448.38;5091592;28;20023;-68
2022/01/25 04:01:33;;;;;;;71.40;45.33;;;;;;;4.86;100.00;103451.41;5105121;28;20161;-67
2022/01/25 04:04:04;;;;;;;74.10;45.25;;;;;;;4.77;100.00;103451.47;5086383;28;20036;-67
2022/01/25 04:06:33;;;;;;;74.07;45.88;;;;;;;4.60;100.00;103447.13;5083948;28;20024;-68
2022/01/25 04:09:02;;;;;;;67.13;44.22;;;;;;;4.83;100.00;103444.44;5079912;28;20031;-68
2022/01/25 04:11:27;;;;;;;69.72;44.35;;;;;;;4.67;100.00;103444.53;5083384;28;20020;-69
2022/01/25 04:13:55;;;;;;;69.53;44.78;;;;;;;4.73;100.00;103441.13;5083573;28;20078;-69
2022/01/25 04:16:27;;;;;;;66.57;43.17;;;;;;;4.99;100.00;103437.22;5084559;28;20447;-68
2022/01/25 04:26:47;;;;;;;70.72;43.15;;;;;;;5.07;100.00;103429.00;5089850;28;20554;-69
2022/01/25 04:29:13;;;;;;;71.88;44.90;;;;;;;4.79;100.00;103422.22;5103221;28;20028;-68
2022/01/25 04:31:39;;;;;;;70.72;45.25;;;;;;;4.58;100.00;103424.75;5093128;28;20035;-68
2022/01/25 04:50:12;;;;;;;67.70;43.25;;;;;;;4.99;100.00;103419.03;5086167;28;20392;-68
2022/01/25 04:53:03;;;;;;;68.95;44.03;;;;;;;4.98;100.00;103420.03;5082842;28;20060;-70
2022/01/25 04:55:37;;;;;;;68.38;43.42;;;;;;;4.96;100.00;103419.38;5090008;28;20046;-68
2022/01/25 04:58:11;;;;;;;69.95;43.55;;;;;;;4.81;100.00;103421.22;5100923;28;20114;-68
2022/01/25 05:00:37;;;;;;;74.82;42.30;;;;;;;5.00;100.00;103417.16;5072704;28;20085;-68
2022/01/25 05:03:18;;;;;;;67.15;41.60;;;;;;;4.76;100.00;103417.16;5083172;28;20028;-69
2022/01/25 05:06:03;;;;;;;66.95;41.53;;;;;;;4.66;100.00;103408.38;5066488;28;20127;-68
2022/01/25 05:11:06;;;;;;;62.10;40.92;;;;;;;4.69;100.00;103415.31;5082730;28;20122;-69
2022/01/25 05:16:14;;;;;;;60.80;39.80;;;;;;;4.95;100.00;103409.53;5094011;28;20036;-68
2022/01/25 05:18:46;;;;;;;67.43;43.08;;;;;;;5.04;100.00;103408.44;5088552;28;20027;-68
2022/01/25 05:23:56;;;;;;;64.72;40.83;;;;;;;5.12;100.00;103400.22;5101840;28;20034;-69
2022/01/25 05:26:24;;;;;;;60.38;39.60;;;;;;;5.03;100.00;103414.06;5102548;28;20393;-68
2022/01/25 05:28:49;;;;;;;66.07;43.10;;;;;;;5.04;100.00;103410.34;5103865;28;20540;-68
2022/01/25 05:31:15;;;;;;;62.47;40.30;;;;;;;5.00;100.00;103409.00;5083167;28;20059;-68
2022/01/25 05:33:40;;;;;;;60.00;40.42;;;;;;;4.87;100.00;103415.03;5065480;28;20195;-68
2022/01/25 05:36:06;;;;;;;63.15;40.55;;;;;;;5.06;100.00;103416.44;5099076;28;20032;-68
2022/01/25 05:38:32;;;;;;;62.42;40.08;;;;;;;5.04;100.00;103407.63;5078822;28;20139;-69
2022/01/25 05:41:02;;;;;;;65.80;41.90;;;;;;;5.15;100.00;103413.47;5081816;28;20184;-69
2022/01/25 05:46:18;;;;;;;65.88;42.10;;;;;;;4.88;100.00;103419.44;5066568;28;20034;-68
2022/01/25 05:48:45;;;;;;;60.55;40.25;;;;;;;4.99;100.00;103418.19;5081683;28;20115;-69
2022/01/25 05:51:11;;;;;;;59.80;39.55;;;;;;;5.20;100.00;103417.50;5082052;28;20054;-69
2022/01/25 05:53:37;;;;;;;61.20;39.50;;;;;;;5.21;100.00;103417.31;5081698;28;20027;-68
2022/01/25 05:56:03;;;;;;;63.25;40.53;;;;;;;5.14;100.00;103421.81;5081110;28;20053;-69
2022/01/25 05:58:29;;;;;;;63.35;40.78;;;;;;;5.20;100.00;103431.97;5083180;28;20873;-68
2022/01/25 06:00:54;;;;;;;66.28;41.67;;;;;;;5.20;100.00;103431.97;5086937;28;20040;-70
2022/01/25 06:03:20;;;;;;;68.20;42.30;;;;;;;5.12;100.00;103427.41;5084118;28;20111;-69
2022/01/25 06:05:46;;;;;;;66.38;43.22;;;;;;;5.22;100.00;103429.06;5069640;28;20020;-67
2022/01/25 06:08:12;;;;;;;71.10;43.88;;;;;;;5.05;100.00;103429.19;5093794;28;20035;-68
2022/01/25 06:10:37;;;;;;;62.65;40.22;;;;;;;4.51;100.00;103432.75;5106591;28;20475;-68
2022/01/25 06:13:03;;;;;;;53.25;37.40;;;;;;;4.61;100.00;103429.81;5105945;28;20389;-68
2022/01/25 06:15:29;;;;;;;58.92;37.90;;;;;;;4.82;100.00;103426.47;5088683;28;20370;-68
2022/01/25 06:17:54;;;;;;;55.45;37.22;;;;;;;4.50;100.00;103432.94;5106489;28;20098;-68
2022/01/25 06:20:19;;;;;;;58.47;39.78;;;;;;;4.57;100.00;103433.91;5105076;28;20136;-68
2022/01/25 06:22:45;;;;;;;54.63;38.63;;;;;;;4.59;100.00;103426.41;5086503;28;20028;-69
2022/01/25 06:25:11;;;;;;;58.00;38.70;;;;;;;4.93;100.00;103427.91;5084334;28;20032;-69
2022/01/25 06:27:39;;;;;;;58.28;39.17;;;;;;;4.52;100.00;103426.28;5088960;28;20114;-70
2022/01/25 06:30:07;;;;;;;60.10;40.47;;;;;;;4.91;100.00;103438.97;5073839;28;20389;-69
2022/01/25 06:32:32;;;;;;;58.97;39.53;;;;;;;5.12;100.00;103438.31;5104894;28;20020;-69
2022/01/25 06:34:58;;;;;;;59.50;40.53;;;;;;;5.11;100.00;103431.16;5107016;28;20065;-70
2022/01/25 06:37:23;;;;;;;55.10;38.03;;;;;;;5.05;100.00;103436.47;5083129;28;20490;-67
2022/01/25 06:39:49;;;;;;;52.88;36.38;;;;;;;4.96;100.00;103432.97;5094673;27;20055;-70
2022/01/25 06:42:15;;;;;;;56.97;38.28;;;;;;;5.12;100.00;103441.03;5093963;28;20647;-68
2022/01/25 06:44:41;;;;;;;56.33;38.72;;;;;;;4.96;100.00;103441.97;5103862;28;20111;-69
2022/01/25 06:47:06;;;;;;;57.33;38.47;;;;;;;4.72;100.00;103450.28;5102592;28;20472;-69
2022/01/25 06:49:32;;;;;;;57.20;38.58;;;;;;;4.80;100.00;103444.81;5082126;28;20580;-68
2022/01/25 06:51:59;;;;;;;56.80;38.70;;;;;;;4.68;100.00;103449.81;5085129;28;20242;-68
2022/01/25 06:54:25;;;;;;;58.10;38.22;;;;;;;4.65;100.00;103446.59;5065289;28;20390;-69
2022/01/25 06:56:50;;;;;;;62.65;41.40;;;;;;;4.75;100.00;103441.78;5086578;28;20032;-69
2022/01/25 06:59:16;;;;;;;57.88;38.63;;;;;;;4.98;100.00;103444.50;5098518;28;20035;-68
2022/01/25 07:01:41;;;;;;;57.63;40.05;;;;;;;4.25;100.00;103446.63;5105051;28;20032;-70
2022/01/25 07:04:07;;;;;;;52.88;36.17;;;;;;;4.28;100.00;103453.56;5099728;28;20028;-68
2022/01/25 07:06:32;;;;;;;61.17;40.55;;;;;;;4.08;100.00;103451.25;5089034;28;20449;-68
2022/01/25 07:08:59;;;;;;;54.05;38.22;;;;;;;4.32;100.00;103444.88;5100032;28;20411;-67
2022/01/25 07:11:25;;;;;;;62.08;41.78;;;;;;;4.85;100.00;103444.28;5082952;28;20036;-68
2022/01/25 07:13:51;;;;;;;62.80;40.10;;;;;;;5.11;100.00;103442.03;5065623;28;20093;-68
2022/01/25 07:16:16;;;;;;;60.30;39.97;;;;;;;5.16;100.00;103441.50;5082433;28;20032;-69
2022/01/25 07:18:42;;;;;;;64.97;41.63;;;;;;;5.03;100.00;103442.09;5047759;28;20111;-68
2022/01/25 07:21:09;;;;;;;61.83;40.78;;;;;;;4.59;100.00;103453.59;5103447;28;20032;-68
2022/01/25 07:23:34;;;;;;;58.40;39.42;;;;;;;4.92;100.00;103450.66;5100409;27;20039;-68
2022/01/25 07:26:00;;;;;;;59.75;39.13;;;;;;;5.06;100.00;103449.91;5088986;28;20032;-68
2022/01/25 07:28:25;;;;;;;59.78;39.53;;;;;;;5.15;100.00;103448.81;5082928;28;20058;-68
2022/01/25 07:30:51;;;;;;;54.35;37.10;;;;;;;5.14;100.00;103446.28;5092368;28;20477;-68
2022/01/25 07:33:18;;;;;;;63.78;41.53;;;;;;;5.21;100.00;103455.38;5094541;28;20176;-68
2022/01/25 07:35:45;;;;;;;66.15;43.15;;;;;;;4.95;100.00;103456.63;5085372;28;20027;-68
2022/01/25 07:38:11;;;;;;;65.88;42.05;;;;;;;5.03;100.00;103454.84;5100414;28;20478;-68
2022/01/25 07:40:37;;;;;;;62.63;40.90;;;;;;;4.88;100.00;103454.78;5102327;28;20044;-69
2022/01/25 07:43:04;;;;;;;69.00;43.53;;;;;;;4.46;100.00;103461.47;5103170;28;20038;-68
2022/01/25 07:45:34;;;;;;;67.93;40.38;;;;;;;4.40;100.00;103453.00;5083658;28;20035;-69
2022/01/25 07:48:04;;;;;;;65.00;40.50;;;;;;;4.07;100.00;103454.13;5095356;28;20044;-68
2022/01/25 07:50:29;;;;;;;68.18;44.10;;;;;;;4.14;100.00;103442.41;5082406;28;20035;-68
2022/01/25 07:52:55;;;;;;;61.75;40.80;;;;;;;4.05;100.00;103455.19;5080662;28;20040;-68
2022/01/25 07:55:21;;;;;;;67.25;42.85;;;;;;;4.21;100.00;103450.69;5083124;28;20504;-68
2022/01/25 07:57:46;;;;;;;69.93;43.58;;;;;;;4.47;100.00;103445.00;5063313;28;20106;-69
2022/01/25 08:00:13;;;;;;;60.53;38.58;;;;;;;4.10;100.00;103443.81;5081807;28;20039;-68
2022/01/25 08:02:40;;;;;;;64.55;41.95;;;;;;;4.33;100.00;103451.16;5088083;28;20031;-69
2022/01/25 08:05:06;;;;;;;66.32;43.92;;;;;;;4.39;100.00;103442.31;5103475;28;20085;-69
2022/01/25 08:07:31;;;;;;;69.03;43.90;;;;;;;4.49;100.00;103447.53;5098761;28;20039;-68
2022/01/25 08:09:57;;;;;;;71.53;43.53;;;;;;;4.66;100.00;103446.44;5104533;28;20027;-68
2022/01/25 08:12:24;;;;;;;66.13;43.10;;;;;;;4.87;100.00;103448.50;5081713;28;20032;-67
2022/01/25 08:14:51;;;;;;;67.10;41.95;;;;;;;5.03;100.00;103442.09;5103821;28;20414;-68
2022/01/25 08:17:17;;;;;;;72.70;42.50;;;;;;;4.87;100.00;103447.66;5104058;28;20583;-69
2022/01/25 08:19:44;;;;;;;65.57;42.63;;;;;;;4.85;100.00;103445.09;5084089;28;20036;-68
2022/01/25 08:22:10;;;;;;;60.45;40.47;;;;;;;5.01;100.00;103436.00;5101060;28;20378;-69
2022/01/25 08:24:35;;;;;;;61.78;40.05;;;;;;;5.12;100.00;103441.03;5101283;28;20050;-69
2022/01/25 08:27:01;;;;;;;61.22;41.35;;;;;;;5.20;100.00;103440.13;5101523;28;20065;-68
2022/01/25 08:29:26;;;;;;;59.65;39.65;;;;;;;5.28;100.00;103440.06;5101646;28;20115;-68
2022/01/25 08:31:51;;;;;;;61.53;40.75;;;;;;;5.24;100.00;103429.72;5087169;28;20058;-68
2022/01/25 08:34:17;;;;;;;63.00;40.92;;;;;;;5.21;100.00;103435.50;5103522;28;20035;-68
2022/01/25 08:36:43;;;;;;;68.35;44.17;;;;;;;5.08;100.00;103437.00;5103894;28;20713;-68
2022/01/25 08:39:08;;;;;;;60.55;41.38;;;;;;;5.24;100.00;103435.16;5083815;28;20565;-68
2022/01/25 08:41:34;;;;;;;59.67;39.70;;;;;;;5.34;100.00;103441.19;5102346;28;20529;-67
2022/01/25 08:43:59;;;;;;;64.28;42.30;;;;;;;5.48;100.00;103439.53;5102941;28;20032;-70
2022/01/25 08:46:26;;;;;;;58.20;39.42;;;;;;;5.29;100.00;103438.16;5104679;28;20457;-69
2022/01/25 08:48:51;;;;;;;58.28;39.30;;;;;;;5.35;100.00;103440.16;5085657;28;21233;-68
2022/01/25 08:51:17;;;;;;;65.90;41.50;;;;;;;5.48;100.00;103439.53;5104376;28;20362;-68
2022/01/25 08:53:43;;;;;;;59.15;39.42;;;;;;;5.47;100.00;103435.13;5100022;28;20767;-68
2022/01/25 08:56:09;;;;;;;61.22;39.00;;;;;;;5.48;100.00;103434.09;5100457;28;20455;-68
2022/01/25 08:58:36;;;;;;;64.40;41.53;;;;;;;5.43;100.00;103437.38;5068610;28;20039;-67
2022/01/25 09:01:03;;;;;;;67.75;43.15;;;;;;;5.53;100.00;103439.84;5087668;28;20370;-70
2022/01/25 09:03:28;;;;;;;65.75;41.92;;;;;;;5.62;100.00;103443.31;5092431;28;20419;-67
2022/01/25 09:05:54;;;;;;;70.65;43.20;;;;;;;5.55;100.00;103445.09;5086525;28;20047;-68
2022/01/25 09:08:22;;;;;;;64.50;42.47;;;;;;;5.58;100.00;103442.00;5081426;28;20523;-69
2022/01/25 09:10:51;;;;;;;64.32;42.08;;;;;;;5.60;100.00;103451.66;5064685;28;20028;-68
2022/01/25 09:13:20;;;;;;;66.55;42.83;;;;;;;5.74;100.00;103441.84;5081874;28;20051;-68
2022/01/25 09:15:46;;;;;;;64.20;41.95;;;;;;;5.52;100.00;103452.56;5080755;28;20599;-69
2022/01/25 09:18:12;;;;;;;61.25;39.88;;;;;;;5.65;100.00;103457.38;5081673;28;20063;-68
2022/01/25 09:20:37;;;;;;;64.13;41.38;;;;;;;5.31;100.00;103458.72;5081765;28;20537;-69
2022/01/25 09:23:02;;;;;;;68.60;43.13;;;;;;;5.04;100.00;103456.56;5080145;28;20028;-69
2022/01/25 09:25:30;;;;;;;67.13;42.97;;;;;;;5.24;100.00;103456.91;5079381;28;20475;-68
2022/01/25 09:27:55;;;;;;;65.13;41.00;;;;;;;5.29;100.00;103459.94;5090373;28;20057;-69
2022/01/25 09:30:21;;;;;;;65.30;42.35;;;;;;;5.55;100.00;103466.88;5103489;28;20481;-68
2022/01/25 09:32:46;;;;;;;65.47;42.65;;;;;;;5.59;100.00;103460.88;5102459;28;20364;-68
2022/01/25 09:35:11;;;;;;;70.78;43.10;;;;;;;5.37;100.00;103462.59;5107024;28;20491;-67
2022/01/25 09:37:37;;;;;;;71.18;44.25;;;;;;;5.42;100.00;103475.63;5099979;28;20445;-68
2022/01/25 09:40:03;;;;;;;75.25;45.55;;;;;;;5.14;100.00;103470.75;5107654;28;20080;-68
2022/01/25 09:42:30;;;;;;;67.53;44.83;;;;;;;5.34;100.00;103471.09;5106933;28;20036;-68
2022/01/25 09:44:57;;;;;;;68.88;43.28;;;;;;;5.32;100.00;103471.28;5090011;28;20031;-68
2022/01/25 09:47:23;;;;;;;67.50;42.83;;;;;;;5.41;100.00;103468.50;5105988;28;20067;-68
2022/01/25 09:49:48;;;;;;;59.90;39.30;;;;;;;5.34;100.00;103473.81;5103417;28;20583;-68
2022/01/25 09:52:14;;;;;;;64.15;41.78;;;;;;;5.50;100.00;103478.28;5103053;28;20536;-68
2022/01/25 09:54:39;;;;;;;68.03;43.40;;;;;;;5.46;100.00;103476.94;5103776;28;20031;-68
2022/01/25 09:57:06;;;;;;;69.70;43.85;;;;;;;5.57;100.00;103479.25;5104897;28;20059;-68
2022/01/25 09:59:32;;;;;;;67.10;43.03;;;;;;;5.79;100.00;103488.41;5103231;28;20366;-68
2022/01/25 10:01:58;;;;;;;67.63;42.95;;;;;;;5.51;100.00;103489.00;5106691;28;20056;-68
2022/01/25 10:04:38;;;;;;;66.28;42.08;;;;;;;5.62;100.00;103489.56;5106384;28;20111;-68
2022/01/25 10:07:05;;;;;;;66.57;42.10;;;;;;;5.74;100.00;103493.56;5102654;28;20122;-67
2022/01/25 10:09:32;;;;;;;68.07;42.70;;;;;;;5.47;100.00;103486.81;5086797;28;20067;-68
2022/01/25 10:12:14;;;;;;;70.10;43.60;;;;;;;5.69;100.00;103499.56;5105273;28;20020;-68
2022/01/25 10:14:53;;;;;;;74.28;44.90;;;;;;;5.49;100.00;103495.63;5084410;28;20474;-68
2022/01/25 10:17:33;;;;;;;71.90;44.83;;;;;;;5.57;100.00;103501.00;5084773;28;20043;-68
2022/01/25 10:19:59;;;;;;;67.78;43.60;;;;;;;5.43;100.00;103497.22;5086492;28;20518;-68
2022/01/25 10:22:25;;;;;;;70.65;45.33;;;;;;;5.57;100.00;103505.63;5089729;28;20223;-67
2022/01/25 10:24:50;;;;;;;67.93;42.38;;;;;;;5.52;100.00;103503.44;5103763;28;20039;-67
2022/01/25 10:27:16;;;;;;;67.28;42.17;;;;;;;5.35;100.00;103516.34;5105000;28;20070;-70
2022/01/25 10:29:41;;;;;;;76.13;47.45;;;;;;;5.34;100.00;103512.78;5105039;28;20140;-69
2022/01/25 10:32:10;;;;;;;67.35;42.22;;;;;;;5.13;100.00;103508.00;5099985;28;20147;-67
2022/01/25 10:34:41;;;;;;;63.72;42.20;;;;;;;5.42;100.00;103509.13;5085706;28;20434;-68
2022/01/25 10:37:18;;;;;;;62.13;40.10;;;;;;;5.19;100.00;103516.44;5083927;28;20796;-68
2022/01/25 10:39:47;;;;;;;62.80;40.97;;;;;;;5.27;100.00;103511.78;5084045;28;20210;-68
2022/01/25 10:42:17;;;;;;;65.07;42.35;;;;;;;5.53;100.00;103511.41;5088695;28;20027;-67
2022/01/25 10:44:53;;;;;;;66.32;41.85;;;;;;;5.46;100.00;103510.47;5083295;28;20034;-67
2022/01/25 10:47:36;;;;;;;64.43;41.40;;;;;;;5.42;100.00;103505.56;5082977;28;20028;-68
2022/01/25 10:50:18;;;;;;;68.80;42.03;;;;;;;5.60;100.00;103508.81;5086164;28;20157;-68
2022/01/25 10:52:45;;;;;;;67.90;43.53;;;;;;;5.54;100.00;103509.53;5081144;28;20490;-68
2022/01/25 10:55:11;;;;;;;70.53;43.45;;;;;;;5.76;100.00;103513.28;5084825;28;20924;-68
2022/01/25 10:57:37;;;;;;;66.18;42.60;;;;;;;5.93;100.00;103508.50;5081691;28;20402;-68
2022/01/25 11:00:12;;;;;;;65.82;40.97;;;;;;;5.86;100.00;103511.13;5085505;28;20040;-68
2022/01/25 11:02:49;;;;;;;63.88;41.08;;;;;;;5.79;100.00;103510.19;5082209;28;20069;-67
2022/01/25 11:05:14;;;;;;;66.65;41.45;;;;;;;5.85;100.00;103512.19;5084801;28;20032;-68
2022/01/25 11:07:45;;;;;;;69.75;42.67;;;;;;;5.61;100.00;103506.97;5079774;28;20039;-69
2022/01/25 11:10:19;;;;;;;68.30;43.53;;;;;;;5.12;100.00;103508.16;5085457;28;20055;-68
2022/01/25 11:13:00;;;;;;;64.40;42.30;;;;;;;4.47;100.00;103504.75;5080920;28;20028;-68
2022/01/25 11:15:26;;;;;;;67.47;42.17;;;;;;;4.87;100.00;103505.59;5084008;28;20028;-68
2022/01/25 11:17:51;;;;;;;69.05;43.35;;;;;;;5.18;100.00;103506.59;5082052;28;20564;-67
2022/01/25 11:20:16;;;;;;;70.65;42.97;;;;;;;5.42;100.00;103498.25;5084700;28;20034;-68
2022/01/25 11:22:44;;;;;;;67.25;42.63;;;;;;;4.93;100.00;103509.47;5077413;28;20375;-69
2022/01/25 11:25:14;;;;;;;69.65;42.90;;;;;;;5.08;100.00;103499.53;5084186;28;20428;-68
2022/01/25 11:27:42;;;;;;;71.15;43.15;;;;;;;4.61;100.00;103500.47;5081281;28;20028;-69
2022/01/25 11:30:13;;;;;;;69.65;43.15;;;;;;;5.00;100.00;103499.59;5083438;28;20028;-68
2022/01/25 11:32:43;;;;;;;71.13;44.25;;;;;;;5.04;100.00;103503.63;5080575;28;20442;-67
2022/01/25 11:35:11;;;;;;;72.53;43.80;;;;;;;4.73;100.00;103495.47;5088592;28;20031;-68
2022/01/25 11:37:43;;;;;;;73.47;43.25;;;;;;;4.85;100.00;103493.19;5099322;28;20043;-69
2022/01/25 11:40:30;;;;;;;71.63;43.13;;;;;;;5.19;100.00;103486.53;5102877;28;20043;-69
2022/01/25 11:42:58;;;;;;;72.30;44.28;;;;;;;5.30;100.00;103475.22;5087806;28;20107;-69
2022/01/25 11:45:27;;;;;;;69.65;42.65;;;;;;;4.76;100.00;103474.22;5083952;28;20020;-69
2022/01/25 11:47:53;;;;;;;69.20;42.90;;;;;;;5.32;100.00;103473.16;5086689;28;20033;-68
2022/01/25 11:50:24;;;;;;;72.03;44.20;;;;;;;5.13;100.00;103483.50;5087196;28;20478;-68
2022/01/25 11:52:52;;;;;;;76.22;45.47;;;;;;;5.19;100.00;103471.06;5076562;28;20508;-69
2022/01/25 11:55:17;;;;;;;71.22;44.45;;;;;;;5.52;100.00;103466.19;5083303;28;20056;-69
2022/01/25 11:58:03;;;;;;;70.32;43.38;;;;;;;5.27;100.00;103467.44;5079540;28;20063;-68
2022/01/25 12:00:40;;;;;;;74.50;43.55;;;;;;;5.46;100.00;103471.50;5081768;28;20111;-69
2022/01/25 12:03:19;;;;;;;71.97;43.45;;;;;;;5.16;100.00;103460.53;5082789;28;20028;-68
2022/01/25 12:05:55;;;;;;;72.00;43.38;;;;;;;5.39;100.00;103465.97;5082271;28;20028;-68
2022/01/25 12:08:28;;;;;;;71.47;43.10;;;;;;;5.20;100.00;103451.00;5083679;28;20028;-64
2022/01/25 12:11:05;;;;;;;;;;;;;;;5.00;100.00;103457.94;5082926;28;20050;-66
2022/01/25 12:13:31;;;;;;;72.10;42.85;;;;;;;4.94;100.00;103451.34;5080821;28;19919;-66
2022/01/25 12:16:28;;;;;;;75.30;44.67;;;;;;;5.19;100.00;103451.19;5080637;28;20661;-66
2022/01/25 12:18:59;;;;;;;74.22;43.03;;;;;;;5.29;100.00;103455.31;5081357;28;20103;-68
2022/01/25 12:21:59;;;;;;;73.88;44.40;;;;;;;4.91;100.00;103459.88;5082237;28;20490;-67
2022/01/25 12:24:50;;;;;;;72.55;42.53;;;;;;;5.25;100.00;103451.28;5037622;28;20043;-68
2022/01/25 12:27:29;;;;;;;70.35;41.55;;;;;;;5.60;100.00;103442.66;5101433;28;20696;-68
2022/01/25 12:30:11;;;;;;;72.00;42.97;;;;;;;5.28;100.00;103441.91;5099882;28;20023;-67
2022/01/25 12:32:50;;;;;;;74.28;44.05;;;;;;;5.67;100.00;103441.75;5088947;28;20023;-68
2022/01/25 12:35:19;;;;;;;68.80;42.70;;;;;;;5.69;100.00;103439.66;5083180;28;20039;-69
2022/01/25 12:37:44;;;;;;;72.15;43.53;;;;;;;5.83;100.00;103431.69;5090661;28;20482;-69
2022/01/25 12:40:25;;;;;;;73.70;43.38;;;;;;;5.94;100.00;103423.06;5102024;28;20149;-68
2022/01/25 12:42:55;;;;;;;74.38;44.45;;;;;;;6.02;100.00;103419.44;5101922;28;20066;-68
2022/01/25 12:45:22;;;;;;;75.82;45.45;;;;;;;5.78;100.00;103424.09;5104599;28;20024;-67
2022/01/25 12:48:03;;;;;;;74.15;45.42;;;;;;;5.29;100.00;103422.69;5100158;28;20054;-68
2022/01/25 12:50:29;;;;;;;73.85;43.90;;;;;;;5.83;100.00;103413.47;5102553;28;20085;-67
2022/01/25 12:52:57;;;;;;;78.55;46.30;;;;;;;5.92;100.00;103408.81;5098138;28;20023;-70